Lytchett Matravers, United Kingdom
Current Conditions -  °F | °C
As of 2:20 AM on Thursday 18 Dec 2014 (Local Time) from EGHH Reporting Station
Overcast Overcast  
Wind Chill: 55°   Ceiling: 1300
Heat Index: 55°   Visibility: 6mi
Dew Point: 52°   Wind: 16mph
Humidity: 88%   Direction: 270°W
Pressure: 29.88"   Gusts: NA
Location:  50.76°N, 2.08°W
Report Text: EGHH 180220Z 27014KT 9999 OVC013 13/11 Q1012
Loading
Personal Weather Stations






























Interactive Weather Map New forecast layout! Learn more

10-Day Weather Forecast

Advertisements
Track Severe Weather on mobile